The Farmers Guide 72-hour weather forecast

Enter Postcode:

Sunny Spells

(12:00)

22.7°C

IP2 0SS

Wind Soil
Date Time Weather Temp Rain Humid Cloud Press (mph) Temp Moist
03/08 12:00 22.7°C 0.0mm 61% 61% 1012mb 16sw (227 degrees) 19.1°C 0.2%
15:00 20.7°C 0.0mm 66% 97% 1013mb 15sw (222 degrees) 19.5°C 0.2%
18:00 20.4°C 0.0mm 66% 97% 1012mb 15sw (216 degrees) 19.5°C 0.2%
21:00 17.7°C 0.0mm 79% 91% 1012mb 10sw (218 degrees) 18.9°C 0.2%
04/08 00:00 15.5°C 0.0mm 85% 74% 1012mb 8sw (235 degrees) 18.0°C 0.2%
03:00 15.4°C 0.0mm 82% 62% 1012mb 9sw (231 degrees) 17.2°C 0.2%
06:00 14.3°C 0.0mm 80% 40% 1012mb 11sww (242 degrees) 16.3°C 0.2%
09:00 18.2°C 0.0mm 56% 0% 1013mb 16sw (235 degrees) 16.6°C 0.2%
12:00 19.9°C 0.0mm 50% 9% 1013mb 18sw (229 degrees) 17.7°C 0.2%
15:00 20.3°C 0.0mm 49% 64% 1014mb 16sw (231 degrees) 18.4°C 0.2%
18:00 19.2°C 0.0mm 55% 51% 1014mb 13sw (227 degrees) 18.7°C 0.2%
21:00 16.6°C 0.0mm 65% 98% 1015mb 11sw (224 degrees) 18.1°C 0.2%
05/08 00:00 15.2°C 0.0mm 69% 95% 1015mb 11sw (228 degrees) 17.4°C 0.2%
03:00 13.7°C 0.0mm 80% 61% 1016mb 10sw (214 degrees) 16.4°C 0.2%
06:00 15.1°C 0.0mm 76% 59% 1015mb 11ssw (206 degrees) 15.8°C 0.2%
09:00 18.8°C 0.0mm 60% 63% 1015mb 11ssw (200 degrees) 16.4°C 0.2%
12:00 21.0°C 0.0mm 53% 50% 1014mb 13s (175 degrees) 17.9°C 0.2%
15:00 22.0°C 0.0mm 48% 37% 1013mb 14sse (168 degrees) 19.0°C 0.2%
18:00 19.7°C 0.0mm 55% 60% 1012mb 8ssw (209 degrees) 19.1°C 0.2%
21:00 16.7°C 0.0mm 66% 76% 1013mb 7ssw (200 degrees) 18.5°C 0.2%
06/08 00:00 16.2°C 0.0mm 73% 60% 1012mb 9ssw (201 degrees) 17.8°C 0.2%
03:00 15.7°C 0.0mm 75% 0% 1012mb 11ssw (204 degrees) 17.0°C 0.2%
06:00 16.6°C 0.0mm 85% 8% 1013mb 12ssw (211 degrees) 16.4°C 0.2%
09:00 18.7°C 0.0mm 76% 98% 1014mb 11sww (238 degrees) 16.9°C 0.2%
The Farmers Guide weather forecast is a free service for users of this website.
 
We now carry forecasts based on postcodes. Just enter your postcode and the weather page will display the forecast for the following 72 hours, broken down into three-hour intervals.
 
The forecast data provided for each three-hour period includes: a general graphic showing the likely weather conditions; average temperatures for the period; cloud cover; barometric pressure; wind speed and direction; humidity; and rainfall.
 
An indication of the likely soil temperature and soil moisture will also be displayed for most postcodes, although this data is not available for every area.
 
We hope you will find this service useful and would welcome any feedback from you.
 
 

Search

Read our full August issue here FREE!

Advertisments